LEMH/MAH METAR and TAF weather

Enter ICAO airport designator
Station Type Date Time Source
LEMH METAR 2020/04/03 22:30 UTC NOAA

LEMH 032230Z AUTO 31005KT 280V350 CAVOK 10/05 Q1018


Station Type Date Time Source
LEMH Decoded METAR 2020/04/03 22:30 UTC NOAA

Menorca / Mahon, Spain (LEMH) 39-52N 004-14E 82M
Apr 03, 2020 - 06:30 PM EDT / 2020.04.03 2230 UTC
Wind: from the NW (310 degrees) at 6 MPH (5 KT) (direction variable):0
Visibility: greater than 7 mile(s):0
Temperature: 50 F (10 C)
Dew Point: 41 F (5 C)
Relative Humidity: 71%
Pressure (altimeter): 30.06 in. Hg (1018 hPa)
ob: LEMH 032230Z AUTO 31005KT 280V350 CAVOK 10/05 Q1018
cycle: 22

Station Type Date Time Source
LEMH TAF 2020/04/03 21:27 UTC NOAA

TAF LEMH 032000Z 0321/0421 34007KT 9999 FEW020 TX18/0412Z TN10/0406Z
BECMG 0408/0410 04010KT

Example: see airport list